sensor_id;sensor_type;location;lat;lon;timestamp;P1;durP1;ratioP1;P2;durP2;ratioP2
41685;SDS011;27370;42.764;23.432;2023-08-17T00:02:11;9.55;;;4.78;;
41685;SDS011;27370;42.764;23.432;2023-08-17T00:04:37;9.35;;;4.72;;
41685;SDS011;27370;42.764;23.432;2023-08-17T00:07:03;10.32;;;4.88;;
41685;SDS011;27370;42.764;23.432;2023-08-17T00:09:29;11.90;;;4.82;;
41685;SDS011;27370;42.764;23.432;2023-08-17T00:11:55;12.30;;;4.97;;
41685;SDS011;27370;42.764;23.432;2023-08-17T00:14:20;8.63;;;4.40;;
41685;SDS011;27370;42.764;23.432;2023-08-17T00:16:46;11.18;;;4.53;;
41685;SDS011;27370;42.764;23.432;2023-08-17T00:19:12;10.65;;;5.22;;
41685;SDS011;27370;42.764;23.432;2023-08-17T00:21:37;11.73;;;4.75;;
41685;SDS011;27370;42.764;23.432;2023-08-17T00:24:03;9.60;;;4.85;;
41685;SDS011;27370;42.764;23.432;2023-08-17T00:26:29;10.73;;;4.80;;
41685;SDS011;27370;42.764;23.432;2023-08-17T00:28:54;10.55;;;4.90;;
41685;SDS011;27370;42.764;23.432;2023-08-17T00:31:20;9.10;;;5.05;;
41685;SDS011;27370;42.764;23.432;2023-08-17T00:33:45;11.48;;;5.35;;
41685;SDS011;27370;42.764;23.432;2023-08-17T00:36:11;11.70;;;5.32;;
41685;SDS011;27370;42.764;23.432;2023-08-17T00:38:36;10.60;;;5.25;;
41685;SDS011;27370;42.764;23.432;2023-08-17T00:41:02;11.65;;;5.07;;
41685;SDS011;27370;42.764;23.432;2023-08-17T00:43:27;11.45;;;5.30;;
41685;SDS011;27370;42.764;23.432;2023-08-17T00:45:54;10.27;;;5.30;;
41685;SDS011;27370;42.764;23.432;2023-08-17T00:48:20;9.13;;;5.05;;
41685;SDS011;27370;42.764;23.432;2023-08-17T00:50:47;11.90;;;5.43;;
41685;SDS011;27370;42.764;23.432;2023-08-17T00:53:15;12.63;;;5.53;;
41685;SDS011;27370;42.764;23.432;2023-08-17T00:55:42;10.98;;;5.35;;
41685;SDS011;27370;42.764;23.432;2023-08-17T00:58:08;12.20;;;5.70;;
41685;SDS011;27370;42.764;23.432;2023-08-17T01:00:34;10.63;;;5.50;;
41685;SDS011;27370;42.764;23.432;2023-08-17T01:02:59;11.02;;;5.13;;
41685;SDS011;27370;42.764;23.432;2023-08-17T01:05:25;12.90;;;5.88;;
41685;SDS011;27370;42.764;23.432;2023-08-17T01:07:50;14.25;;;5.38;;
41685;SDS011;27370;42.764;23.432;2023-08-17T01:10:16;10.52;;;5.75;;
41685;SDS011;27370;42.764;23.432;2023-08-17T01:12:44;11.38;;;5.78;;
41685;SDS011;27370;42.764;23.432;2023-08-17T01:15:40;11.27;;;5.55;;
41685;SDS011;27370;42.764;23.432;2023-08-17T01:18:17;11.07;;;5.45;;
41685;SDS011;27370;42.764;23.432;2023-08-17T01:20:44;13.20;;;5.80;;
41685;SDS011;27370;42.764;23.432;2023-08-17T01:23:11;10.73;;;5.82;;
41685;SDS011;27370;42.764;23.432;2023-08-17T01:25:36;10.70;;;6.20;;
41685;SDS011;27370;42.764;23.432;2023-08-17T01:28:03;13.20;;;6.85;;
41685;SDS011;27370;42.764;23.432;2023-08-17T01:30:37;12.18;;;6.80;;
41685;SDS011;27370;42.764;23.432;2023-08-17T01:33:40;11.15;;;6.70;;
41685;SDS011;27370;42.764;23.432;2023-08-17T01:38:59;11.77;;;6.65;;
41685;SDS011;27370;42.764;23.432;2023-08-17T01:41:26;12.32;;;6.95;;
41685;SDS011;27370;42.764;23.432;2023-08-17T01:43:52;12.23;;;7.28;;
41685;SDS011;27370;42.764;23.432;2023-08-17T01:46:20;13.02;;;7.22;;
41685;SDS011;27370;42.764;23.432;2023-08-17T01:48:46;13.43;;;7.50;;
41685;SDS011;27370;42.764;23.432;2023-08-17T01:51:15;13.70;;;8.35;;
41685;SDS011;27370;42.764;23.432;2023-08-17T01:53:43;14.50;;;8.23;;
41685;SDS011;27370;42.764;23.432;2023-08-17T01:56:09;16.35;;;7.57;;
41685;SDS011;27370;42.764;23.432;2023-08-17T01:58:34;16.05;;;8.15;;
41685;SDS011;27370;42.764;23.432;2023-08-17T02:01:00;15.05;;;8.02;;
41685;SDS011;27370;42.764;23.432;2023-08-17T02:03:26;14.23;;;7.80;;
41685;SDS011;27370;42.764;23.432;2023-08-17T02:05:57;14.82;;;8.50;;
41685;SDS011;27370;42.764;23.432;2023-08-17T02:10:49;13.27;;;8.10;;
41685;SDS011;27370;42.764;23.432;2023-08-17T02:13:14;15.05;;;8.10;;
41685;SDS011;27370;42.764;23.432;2023-08-17T02:15:41;14.52;;;8.18;;
41685;SDS011;27370;42.764;23.432;2023-08-17T02:18:07;12.75;;;8.20;;
41685;SDS011;27370;42.764;23.432;2023-08-17T02:20:33;12.40;;;7.65;;
41685;SDS011;27370;42.764;23.432;2023-08-17T02:23:00;16.77;;;8.80;;
41685;SDS011;27370;42.764;23.432;2023-08-17T02:25:26;16.10;;;8.82;;
41685;SDS011;27370;42.764;23.432;2023-08-17T02:27:52;16.08;;;8.60;;
41685;SDS011;27370;42.764;23.432;2023-08-17T02:30:18;16.33;;;8.45;;
41685;SDS011;27370;42.764;23.432;2023-08-17T02:32:44;13.98;;;8.75;;
41685;SDS011;27370;42.764;23.432;2023-08-17T02:35:09;19.60;;;8.60;;
41685;SDS011;27370;42.764;23.432;2023-08-17T02:37:35;15.82;;;9.50;;
41685;SDS011;27370;42.764;23.432;2023-08-17T02:40:00;14.60;;;9.40;;
41685;SDS011;27370;42.764;23.432;2023-08-17T02:42:26;17.67;;;9.07;;
41685;SDS011;27370;42.764;23.432;2023-08-17T02:44:53;15.70;;;9.38;;
41685;SDS011;27370;42.764;23.432;2023-08-17T02:47:18;13.95;;;9.20;;
41685;SDS011;27370;42.764;23.432;2023-08-17T02:49:43;13.98;;;8.77;;
41685;SDS011;27370;42.764;23.432;2023-08-17T02:52:09;14.63;;;8.75;;
41685;SDS011;27370;42.764;23.432;2023-08-17T02:54:34;15.27;;;9.02;;
41685;SDS011;27370;42.764;23.432;2023-08-17T02:57:00;14.95;;;8.98;;
41685;SDS011;27370;42.764;23.432;2023-08-17T02:59:25;17.05;;;9.60;;
41685;SDS011;27370;42.764;23.432;2023-08-17T03:01:51;16.88;;;9.27;;
41685;SDS011;27370;42.764;23.432;2023-08-17T03:04:18;16.13;;;8.48;;
41685;SDS011;27370;42.764;23.432;2023-08-17T03:06:44;16.48;;;9.07;;
41685;SDS011;27370;42.764;23.432;2023-08-17T03:09:09;14.35;;;8.48;;
41685;SDS011;27370;42.764;23.432;2023-08-17T03:11:36;16.23;;;8.60;;
41685;SDS011;27370;42.764;23.432;2023-08-17T03:14:01;16.08;;;9.15;;
41685;SDS011;27370;42.764;23.432;2023-08-17T03:16:28;16.70;;;9.30;;
41685;SDS011;27370;42.764;23.432;2023-08-17T03:18:55;16.67;;;9.68;;
41685;SDS011;27370;42.764;23.432;2023-08-17T03:21:22;18.60;;;9.30;;
41685;SDS011;27370;42.764;23.432;2023-08-17T03:23:48;15.75;;;9.30;;
41685;SDS011;27370;42.764;23.432;2023-08-17T03:26:14;16.25;;;9.05;;
41685;SDS011;27370;42.764;23.432;2023-08-17T03:28:40;16.95;;;9.32;;
41685;SDS011;27370;42.764;23.432;2023-08-17T03:31:06;16.35;;;9.07;;
41685;SDS011;27370;42.764;23.432;2023-08-17T03:33:34;16.35;;;9.00;;
41685;SDS011;27370;42.764;23.432;2023-08-17T03:36:01;16.80;;;9.50;;
41685;SDS011;27370;42.764;23.432;2023-08-17T03:38:27;13.75;;;8.73;;
41685;SDS011;27370;42.764;23.432;2023-08-17T03:40:52;17.35;;;9.40;;
41685;SDS011;27370;42.764;23.432;2023-08-17T03:43:21;14.75;;;9.45;;
41685;SDS011;27370;42.764;23.432;2023-08-17T03:45:47;16.45;;;9.15;;
41685;SDS011;27370;42.764;23.432;2023-08-17T03:48:12;15.07;;;8.90;;
41685;SDS011;27370;42.764;23.432;2023-08-17T03:50:38;19.48;;;9.63;;
41685;SDS011;27370;42.764;23.432;2023-08-17T03:53:05;15.38;;;9.52;;
41685;SDS011;27370;42.764;23.432;2023-08-17T03:55:30;17.35;;;10.07;;
41685;SDS011;27370;42.764;23.432;2023-08-17T03:57:56;17.48;;;9.45;;
41685;SDS011;27370;42.764;23.432;2023-08-17T04:00:21;16.90;;;9.88;;
41685;SDS011;27370;42.764;23.432;2023-08-17T04:02:52;17.27;;;8.77;;
41685;SDS011;27370;42.764;23.432;2023-08-17T04:05:19;16.88;;;8.98;;
41685;SDS011;27370;42.764;23.432;2023-08-17T04:07:44;14.65;;;8.80;;
41685;SDS011;27370;42.764;23.432;2023-08-17T04:10:10;18.50;;;9.55;;
41685;SDS011;27370;42.764;23.432;2023-08-17T04:12:35;19.73;;;9.38;;
41685;SDS011;27370;42.764;23.432;2023-08-17T04:15:03;15.82;;;9.05;;
41685;SDS011;27370;42.764;23.432;2023-08-17T04:17:29;19.40;;;9.43;;
41685;SDS011;27370;42.764;23.432;2023-08-17T04:19:55;13.05;;;8.30;;
41685;SDS011;27370;42.764;23.432;2023-08-17T04:22:21;15.60;;;8.93;;
41685;SDS011;27370;42.764;23.432;2023-08-17T04:24:46;14.48;;;8.68;;
41685;SDS011;27370;42.764;23.432;2023-08-17T04:27:12;16.85;;;9.25;;
41685;SDS011;27370;42.764;23.432;2023-08-17T04:29:39;14.55;;;9.07;;
41685;SDS011;27370;42.764;23.432;2023-08-17T04:32:04;14.02;;;8.32;;
41685;SDS011;27370;42.764;23.432;2023-08-17T04:34:30;16.02;;;8.23;;
41685;SDS011;27370;42.764;23.432;2023-08-17T04:36:56;15.23;;;7.85;;
41685;SDS011;27370;42.764;23.432;2023-08-17T04:39:21;14.57;;;7.72;;
41685;SDS011;27370;42.764;23.432;2023-08-17T04:41:47;14.70;;;7.78;;
41685;SDS011;27370;42.764;23.432;2023-08-17T04:44:18;15.30;;;7.65;;
41685;SDS011;27370;42.764;23.432;2023-08-17T04:46:44;14.80;;;7.18;;
41685;SDS011;27370;42.764;23.432;2023-08-17T04:49:10;11.77;;;6.80;;
41685;SDS011;27370;42.764;23.432;2023-08-17T04:51:35;12.85;;;7.35;;
41685;SDS011;27370;42.764;23.432;2023-08-17T04:54:01;15.38;;;7.00;;
41685;SDS011;27370;42.764;23.432;2023-08-17T04:56:27;13.80;;;7.05;;
41685;SDS011;27370;42.764;23.432;2023-08-17T04:58:53;16.25;;;6.75;;
41685;SDS011;27370;42.764;23.432;2023-08-17T05:01:19;13.70;;;6.65;;
41685;SDS011;27370;42.764;23.432;2023-08-17T05:03:44;13.27;;;6.40;;
41685;SDS011;27370;42.764;23.432;2023-08-17T05:06:11;13.27;;;6.47;;
41685;SDS011;27370;42.764;23.432;2023-08-17T05:08:37;12.75;;;6.53;;
41685;SDS011;27370;42.764;23.432;2023-08-17T05:11:02;17.70;;;8.18;;
41685;SDS011;27370;42.764;23.432;2023-08-17T05:13:28;12.63;;;6.55;;
41685;SDS011;27370;42.764;23.432;2023-08-17T05:15:56;14.13;;;7.18;;
41685;SDS011;27370;42.764;23.432;2023-08-17T05:18:22;15.73;;;7.30;;
41685;SDS011;27370;42.764;23.432;2023-08-17T05:20:47;15.40;;;7.22;;
41685;SDS011;27370;42.764;23.432;2023-08-17T05:23:13;13.02;;;7.07;;
41685;SDS011;27370;42.764;23.432;2023-08-17T05:25:39;14.73;;;7.63;;
41685;SDS011;27370;42.764;23.432;2023-08-17T05:28:04;12.38;;;7.68;;
41685;SDS011;27370;42.764;23.432;2023-08-17T05:30:30;14.98;;;7.80;;
41685;SDS011;27370;42.764;23.432;2023-08-17T05:32:56;14.77;;;7.65;;
41685;SDS011;27370;42.764;23.432;2023-08-17T05:35:21;15.30;;;7.10;;
41685;SDS011;27370;42.764;23.432;2023-08-17T05:37:47;14.50;;;7.07;;
41685;SDS011;27370;42.764;23.432;2023-08-17T05:40:12;15.30;;;6.55;;
41685;SDS011;27370;42.764;23.432;2023-08-17T05:42:38;12.05;;;6.43;;
41685;SDS011;27370;42.764;23.432;2023-08-17T05:45:03;15.38;;;6.10;;
41685;SDS011;27370;42.764;23.432;2023-08-17T05:47:29;9.98;;;5.60;;
41685;SDS011;27370;42.764;23.432;2023-08-17T05:49:55;11.20;;;5.85;;
41685;SDS011;27370;42.764;23.432;2023-08-17T05:52:20;12.93;;;6.30;;
41685;SDS011;27370;42.764;23.432;2023-08-17T05:54:46;13.02;;;6.30;;
41685;SDS011;27370;42.764;23.432;2023-08-17T05:57:11;11.27;;;6.57;;
41685;SDS011;27370;42.764;23.432;2023-08-17T05:59:37;13.13;;;6.75;;
41685;SDS011;27370;42.764;23.432;2023-08-17T06:02:02;15.32;;;7.10;;
41685;SDS011;27370;42.764;23.432;2023-08-17T06:04:28;12.77;;;6.15;;
41685;SDS011;27370;42.764;23.432;2023-08-17T06:06:53;12.10;;;6.35;;
41685;SDS011;27370;42.764;23.432;2023-08-17T06:09:20;10.80;;;5.68;;
41685;SDS011;27370;42.764;23.432;2023-08-17T06:11:45;15.05;;;6.35;;
41685;SDS011;27370;42.764;23.432;2023-08-17T06:14:11;11.13;;;6.18;;
41685;SDS011;27370;42.764;23.432;2023-08-17T06:16:37;12.73;;;6.20;;
41685;SDS011;27370;42.764;23.432;2023-08-17T06:19:03;10.70;;;5.68;;
41685;SDS011;27370;42.764;23.432;2023-08-17T06:21:28;11.73;;;5.80;;
41685;SDS011;27370;42.764;23.432;2023-08-17T06:23:54;13.93;;;5.97;;
41685;SDS011;27370;42.764;23.432;2023-08-17T06:26:19;11.43;;;5.57;;
41685;SDS011;27370;42.764;23.432;2023-08-17T06:28:45;11.35;;;5.90;;
41685;SDS011;27370;42.764;23.432;2023-08-17T06:31:10;11.52;;;5.80;;
41685;SDS011;27370;42.764;23.432;2023-08-17T06:33:40;13.60;;;5.95;;
41685;SDS011;27370;42.764;23.432;2023-08-17T06:36:05;11.93;;;5.72;;
41685;SDS011;27370;42.764;23.432;2023-08-17T06:38:30;11.38;;;5.63;;
41685;SDS011;27370;42.764;23.432;2023-08-17T06:40:56;11.13;;;6.07;;
41685;SDS011;27370;42.764;23.432;2023-08-17T06:43:21;13.32;;;6.35;;
41685;SDS011;27370;42.764;23.432;2023-08-17T06:45:47;12.07;;;5.80;;
41685;SDS011;27370;42.764;23.432;2023-08-17T06:48:12;10.90;;;5.88;;
41685;SDS011;27370;42.764;23.432;2023-08-17T06:50:38;11.77;;;6.10;;
41685;SDS011;27370;42.764;23.432;2023-08-17T06:53:04;12.02;;;6.20;;
41685;SDS011;27370;42.764;23.432;2023-08-17T06:55:30;11.88;;;5.90;;
41685;SDS011;27370;42.764;23.432;2023-08-17T06:57:56;12.50;;;6.55;;
41685;SDS011;27370;42.764;23.432;2023-08-17T07:00:22;12.85;;;6.30;;
41685;SDS011;27370;42.764;23.432;2023-08-17T07:02:48;14.10;;;6.05;;
41685;SDS011;27370;42.764;23.432;2023-08-17T07:05:14;11.02;;;5.80;;
41685;SDS011;27370;42.764;23.432;2023-08-17T07:07:40;11.70;;;5.93;;
41685;SDS011;27370;42.764;23.432;2023-08-17T07:10:07;10.23;;;5.85;;
41685;SDS011;27370;42.764;23.432;2023-08-17T07:12:33;10.60;;;6.00;;
41685;SDS011;27370;42.764;23.432;2023-08-17T07:14:58;10.55;;;5.60;;
41685;SDS011;27370;42.764;23.432;2023-08-17T07:17:24;10.35;;;5.93;;
41685;SDS011;27370;42.764;23.432;2023-08-17T07:19:49;10.15;;;5.72;;
41685;SDS011;27370;42.764;23.432;2023-08-17T07:22:15;11.50;;;5.93;;
41685;SDS011;27370;42.764;23.432;2023-08-17T07:24:41;11.55;;;5.25;;
41685;SDS011;27370;42.764;23.432;2023-08-17T07:27:07;11.65;;;5.70;;
41685;SDS011;27370;42.764;23.432;2023-08-17T07:29:33;11.35;;;5.53;;
41685;SDS011;27370;42.764;23.432;2023-08-17T07:31:58;11.63;;;6.00;;
41685;SDS011;27370;42.764;23.432;2023-08-17T07:34:28;10.32;;;5.72;;
41685;SDS011;27370;42.764;23.432;2023-08-17T07:36:55;11.10;;;5.60;;
41685;SDS011;27370;42.764;23.432;2023-08-17T07:39:20;10.13;;;5.90;;
41685;SDS011;27370;42.764;23.432;2023-08-17T07:41:46;10.73;;;5.80;;
41685;SDS011;27370;42.764;23.432;2023-08-17T07:44:11;11.07;;;5.78;;
41685;SDS011;27370;42.764;23.432;2023-08-17T07:46:37;9.57;;;5.32;;
41685;SDS011;27370;42.764;23.432;2023-08-17T07:49:03;10.73;;;5.90;;
41685;SDS011;27370;42.764;23.432;2023-08-17T07:51:29;12.00;;;5.72;;
41685;SDS011;27370;42.764;23.432;2023-08-17T07:53:56;11.55;;;5.22;;
41685;SDS011;27370;42.764;23.432;2023-08-17T07:56:23;10.95;;;5.60;;
41685;SDS011;27370;42.764;23.432;2023-08-17T07:58:48;8.52;;;5.18;;
41685;SDS011;27370;42.764;23.432;2023-08-17T08:01:14;9.70;;;5.50;;
41685;SDS011;27370;42.764;23.432;2023-08-17T08:03:40;10.43;;;5.57;;
41685;SDS011;27370;42.764;23.432;2023-08-17T08:06:05;9.07;;;5.03;;
41685;SDS011;27370;42.764;23.432;2023-08-17T08:08:31;10.18;;;4.78;;
41685;SDS011;27370;42.764;23.432;2023-08-17T08:10:56;9.93;;;5.28;;
41685;SDS011;27370;42.764;23.432;2023-08-17T08:13:23;10.07;;;4.65;;
41685;SDS011;27370;42.764;23.432;2023-08-17T08:15:48;11.93;;;4.97;;
41685;SDS011;27370;42.764;23.432;2023-08-17T08:18:14;11.88;;;5.68;;
41685;SDS011;27370;42.764;23.432;2023-08-17T08:20:40;9.52;;;5.60;;
41685;SDS011;27370;42.764;23.432;2023-08-17T08:23:05;10.43;;;5.65;;
41685;SDS011;27370;42.764;23.432;2023-08-17T08:25:30;12.35;;;5.40;;
41685;SDS011;27370;42.764;23.432;2023-08-17T08:27:56;12.48;;;5.60;;
41685;SDS011;27370;42.764;23.432;2023-08-17T08:30:21;10.43;;;5.22;;
41685;SDS011;27370;42.764;23.432;2023-08-17T08:32:47;9.68;;;5.32;;
41685;SDS011;27370;42.764;23.432;2023-08-17T08:35:13;9.30;;;5.28;;
41685;SDS011;27370;42.764;23.432;2023-08-17T08:37:38;9.70;;;5.18;;
41685;SDS011;27370;42.764;23.432;2023-08-17T08:40:04;8.98;;;4.15;;
41685;SDS011;27370;42.764;23.432;2023-08-17T08:42:36;10.52;;;5.78;;
41685;SDS011;27370;42.764;23.432;2023-08-17T08:45:02;15.55;;;6.10;;
41685;SDS011;27370;42.764;23.432;2023-08-17T08:47:27;12.27;;;5.75;;
41685;SDS011;27370;42.764;23.432;2023-08-17T08:49:59;10.20;;;5.40;;
41685;SDS011;27370;42.764;23.432;2023-08-17T08:52:35;9.50;;;5.57;;
41685;SDS011;27370;42.764;23.432;2023-08-17T08:55:13;6.68;;;3.28;;
41685;SDS011;27370;42.764;23.432;2023-08-17T08:57:42;6.05;;;2.83;;
41685;SDS011;27370;42.764;23.432;2023-08-17T09:00:08;7.35;;;3.15;;
41685;SDS011;27370;42.764;23.432;2023-08-17T09:02:35;6.90;;;2.83;;
41685;SDS011;27370;42.764;23.432;2023-08-17T09:05:01;9.30;;;4.40;;
41685;SDS011;27370;42.764;23.432;2023-08-17T09:07:28;12.77;;;5.20;;
41685;SDS011;27370;42.764;23.432;2023-08-17T09:09:54;8.70;;;5.07;;
41685;SDS011;27370;42.764;23.432;2023-08-17T09:12:21;9.75;;;4.95;;
41685;SDS011;27370;42.764;23.432;2023-08-17T09:14:47;8.50;;;4.60;;
41685;SDS011;27370;42.764;23.432;2023-08-17T09:17:13;9.43;;;5.13;;
41685;SDS011;27370;42.764;23.432;2023-08-17T09:19:38;7.93;;;4.63;;
41685;SDS011;27370;42.764;23.432;2023-08-17T09:22:04;7.38;;;3.85;;
41685;SDS011;27370;42.764;23.432;2023-08-17T09:24:36;7.13;;;2.80;;
41685;SDS011;27370;42.764;23.432;2023-08-17T09:27:02;6.93;;;3.33;;
41685;SDS011;27370;42.764;23.432;2023-08-17T09:29:29;5.95;;;3.00;;
41685;SDS011;27370;42.764;23.432;2023-08-17T09:32:05;18.63;;;3.42;;
41685;SDS011;27370;42.764;23.432;2023-08-17T09:34:32;7.10;;;2.85;;
41685;SDS011;27370;42.764;23.432;2023-08-17T09:37:04;7.05;;;2.90;;
41685;SDS011;27370;42.764;23.432;2023-08-17T09:39:30;8.50;;;3.45;;
41685;SDS011;27370;42.764;23.432;2023-08-17T09:41:56;5.53;;;3.00;;
41685;SDS011;27370;42.764;23.432;2023-08-17T09:44:22;5.45;;;3.08;;
41685;SDS011;27370;42.764;23.432;2023-08-17T09:46:48;6.30;;;3.25;;
41685;SDS011;27370;42.764;23.432;2023-08-17T09:49:13;6.43;;;3.30;;
41685;SDS011;27370;42.764;23.432;2023-08-17T09:51:45;7.82;;;3.17;;
41685;SDS011;27370;42.764;23.432;2023-08-17T09:54:20;6.50;;;2.92;;
41685;SDS011;27370;42.764;23.432;2023-08-17T09:56:49;6.45;;;3.03;;
41685;SDS011;27370;42.764;23.432;2023-08-17T09:59:16;6.57;;;3.30;;
41685;SDS011;27370;42.764;23.432;2023-08-17T10:01:42;6.10;;;3.10;;
41685;SDS011;27370;42.764;23.432;2023-08-17T10:04:09;8.05;;;3.38;;
41685;SDS011;27370;42.764;23.432;2023-08-17T10:06:36;6.63;;;3.22;;
41685;SDS011;27370;42.764;23.432;2023-08-17T10:09:06;8.88;;;3.45;;
41685;SDS011;27370;42.764;23.432;2023-08-17T10:11:35;8.73;;;4.17;;
41685;SDS011;27370;42.764;23.432;2023-08-17T10:14:05;11.50;;;4.60;;
41685;SDS011;27370;42.764;23.432;2023-08-17T10:16:40;9.10;;;4.50;;
41685;SDS011;27370;42.764;23.432;2023-08-17T10:19:13;10.43;;;4.43;;
41685;SDS011;27370;42.764;23.432;2023-08-17T10:21:44;8.43;;;4.30;;
41685;SDS011;27370;42.764;23.432;2023-08-17T10:24:15;10.35;;;5.07;;
41685;SDS011;27370;42.764;23.432;2023-08-17T10:26:41;8.70;;;4.32;;
41685;SDS011;27370;42.764;23.432;2023-08-17T10:29:07;10.20;;;4.70;;
41685;SDS011;27370;42.764;23.432;2023-08-17T10:31:36;8.95;;;4.65;;
41685;SDS011;27370;42.764;23.432;2023-08-17T10:34:03;9.18;;;4.63;;
41685;SDS011;27370;42.764;23.432;2023-08-17T10:36:30;8.65;;;3.92;;
41685;SDS011;27370;42.764;23.432;2023-08-17T10:41:48;7.15;;;4.05;;
41685;SDS011;27370;42.764;23.432;2023-08-17T10:44:14;9.98;;;4.70;;
41685;SDS011;27370;42.764;23.432;2023-08-17T10:46:41;10.65;;;5.15;;
41685;SDS011;27370;42.764;23.432;2023-08-17T10:49:23;9.80;;;4.20;;
41685;SDS011;27370;42.764;23.432;2023-08-17T10:51:59;5.43;;;3.20;;
41685;SDS011;27370;42.764;23.432;2023-08-17T10:54:38;6.20;;;2.65;;
41685;SDS011;27370;42.764;23.432;2023-08-17T11:12:25;9.60;;;4.43;;
41685;SDS011;27370;42.764;23.432;2023-08-17T11:14:51;10.77;;;4.70;;
41685;SDS011;27370;42.764;23.432;2023-08-17T11:17:20;9.00;;;5.05;;
41685;SDS011;27370;42.764;23.432;2023-08-17T11:19:46;12.55;;;4.93;;
41685;SDS011;27370;42.764;23.432;2023-08-17T11:22:12;9.15;;;4.47;;
41685;SDS011;27370;42.764;23.432;2023-08-17T11:24:37;9.55;;;4.63;;
41685;SDS011;27370;42.764;23.432;2023-08-17T11:27:05;8.45;;;4.47;;
41685;SDS011;27370;42.764;23.432;2023-08-17T11:29:31;9.07;;;4.43;;
41685;SDS011;27370;42.764;23.432;2023-08-17T11:31:58;9.02;;;4.80;;
41685;SDS011;27370;42.764;23.432;2023-08-17T11:34:23;10.55;;;4.88;;
41685;SDS011;27370;42.764;23.432;2023-08-17T11:36:49;10.13;;;4.80;;
41685;SDS011;27370;42.764;23.432;2023-08-17T11:39:15;9.95;;;4.40;;
41685;SDS011;27370;42.764;23.432;2023-08-17T11:41:40;12.20;;;4.65;;
41685;SDS011;27370;42.764;23.432;2023-08-17T11:44:06;10.07;;;4.88;;
41685;SDS011;27370;42.764;23.432;2023-08-17T11:46:32;8.63;;;4.40;;
41685;SDS011;27370;42.764;23.432;2023-08-17T11:49:00;11.13;;;4.55;;
41685;SDS011;27370;42.764;23.432;2023-08-17T11:51:32;11.32;;;4.88;;
41685;SDS011;27370;42.764;23.432;2023-08-17T11:53:58;11.50;;;4.68;;
41685;SDS011;27370;42.764;23.432;2023-08-17T11:56:24;11.02;;;5.05;;
41685;SDS011;27370;42.764;23.432;2023-08-17T11:58:50;9.80;;;4.75;;
41685;SDS011;27370;42.764;23.432;2023-08-17T12:01:15;8.30;;;4.63;;
41685;SDS011;27370;42.764;23.432;2023-08-17T12:03:41;9.60;;;4.45;;
41685;SDS011;27370;42.764;23.432;2023-08-17T12:06:07;7.82;;;3.85;;
41685;SDS011;27370;42.764;23.432;2023-08-17T12:08:32;12.93;;;4.30;;
41685;SDS011;27370;42.764;23.432;2023-08-17T12:10:58;8.80;;;4.45;;
41685;SDS011;27370;42.764;23.432;2023-08-17T12:13:31;9.18;;;4.80;;
41685;SDS011;27370;42.764;23.432;2023-08-17T12:15:59;9.05;;;4.32;;
41685;SDS011;27370;42.764;23.432;2023-08-17T12:18:25;7.47;;;3.83;;
41685;SDS011;27370;42.764;23.432;2023-08-17T12:20:54;8.80;;;4.10;;
41685;SDS011;27370;42.764;23.432;2023-08-17T12:23:20;9.43;;;4.63;;
41685;SDS011;27370;42.764;23.432;2023-08-17T12:25:46;10.10;;;4.35;;
41685;SDS011;27370;42.764;23.432;2023-08-17T12:28:17;8.02;;;4.30;;
41685;SDS011;27370;42.764;23.432;2023-08-17T12:30:43;9.35;;;4.07;;
41685;SDS011;27370;42.764;23.432;2023-08-17T12:33:08;8.30;;;4.43;;
41685;SDS011;27370;42.764;23.432;2023-08-17T12:35:34;10.48;;;4.43;;
41685;SDS011;27370;42.764;23.432;2023-08-17T12:37:59;9.48;;;4.55;;
41685;SDS011;27370;42.764;23.432;2023-08-17T12:40:25;9.07;;;4.20;;
41685;SDS011;27370;42.764;23.432;2023-08-17T12:42:50;8.80;;;4.30;;
41685;SDS011;27370;42.764;23.432;2023-08-17T12:45:16;8.73;;;3.70;;
41685;SDS011;27370;42.764;23.432;2023-08-17T12:47:42;8.57;;;4.00;;
41685;SDS011;27370;42.764;23.432;2023-08-17T12:50:07;7.97;;;4.28;;
41685;SDS011;27370;42.764;23.432;2023-08-17T12:52:33;8.48;;;4.00;;
41685;SDS011;27370;42.764;23.432;2023-08-17T12:54:59;7.53;;;4.28;;
41685;SDS011;27370;42.764;23.432;2023-08-17T12:57:25;7.13;;;4.00;;
41685;SDS011;27370;42.764;23.432;2023-08-17T12:59:52;7.60;;;4.28;;
41685;SDS011;27370;42.764;23.432;2023-08-17T13:02:17;9.27;;;4.15;;
41685;SDS011;27370;42.764;23.432;2023-08-17T13:04:45;12.60;;;4.32;;
41685;SDS011;27370;42.764;23.432;2023-08-17T13:07:10;8.80;;;4.07;;
41685;SDS011;27370;42.764;23.432;2023-08-17T13:09:35;9.82;;;3.72;;
41685;SDS011;27370;42.764;23.432;2023-08-17T13:12:01;7.07;;;3.97;;
41685;SDS011;27370;42.764;23.432;2023-08-17T13:14:26;8.25;;;4.30;;
41685;SDS011;27370;42.764;23.432;2023-08-17T13:16:52;7.68;;;3.95;;
41685;SDS011;27370;42.764;23.432;2023-08-17T13:19:17;10.65;;;4.10;;
41685;SDS011;27370;42.764;23.432;2023-08-17T13:21:43;8.00;;;3.78;;
41685;SDS011;27370;42.764;23.432;2023-08-17T13:24:09;6.20;;;3.40;;
41685;SDS011;27370;42.764;23.432;2023-08-17T13:26:35;7.95;;;3.85;;
41685;SDS011;27370;42.764;23.432;2023-08-17T13:29:00;10.10;;;4.50;;
41685;SDS011;27370;42.764;23.432;2023-08-17T13:31:26;7.50;;;3.85;;
41685;SDS011;27370;42.764;23.432;2023-08-17T13:33:51;8.60;;;4.10;;
41685;SDS011;27370;42.764;23.432;2023-08-17T13:36:18;6.32;;;3.47;;
41685;SDS011;27370;42.764;23.432;2023-08-17T13:38:44;10.20;;;4.13;;
41685;SDS011;27370;42.764;23.432;2023-08-17T13:41:10;6.97;;;3.50;;
41685;SDS011;27370;42.764;23.432;2023-08-17T13:43:36;7.82;;;3.60;;
41685;SDS011;27370;42.764;23.432;2023-08-17T13:46:01;7.85;;;3.75;;
41685;SDS011;27370;42.764;23.432;2023-08-17T13:48:27;6.95;;;3.50;;
41685;SDS011;27370;42.764;23.432;2023-08-17T13:50:52;7.53;;;3.70;;
41685;SDS011;27370;42.764;23.432;2023-08-17T13:53:18;8.02;;;3.53;;
41685;SDS011;27370;42.764;23.432;2023-08-17T13:55:43;7.75;;;3.63;;
41685;SDS011;27370;42.764;23.432;2023-08-17T13:58:08;7.40;;;3.50;;
41685;SDS011;27370;42.764;23.432;2023-08-17T14:00:35;7.10;;;3.35;;
41685;SDS011;27370;42.764;23.432;2023-08-17T14:03:01;7.10;;;3.20;;
41685;SDS011;27370;42.764;23.432;2023-08-17T14:05:27;6.88;;;3.40;;
41685;SDS011;27370;42.764;23.432;2023-08-17T14:07:52;9.68;;;3.55;;
41685;SDS011;27370;42.764;23.432;2023-08-17T14:10:18;7.07;;;3.47;;
41685;SDS011;27370;42.764;23.432;2023-08-17T14:12:43;7.82;;;3.50;;
41685;SDS011;27370;42.764;23.432;2023-08-17T14:15:09;7.20;;;3.30;;
41685;SDS011;27370;42.764;23.432;2023-08-17T14:17:35;7.90;;;3.85;;
41685;SDS011;27370;42.764;23.432;2023-08-17T14:20:00;6.65;;;3.60;;
41685;SDS011;27370;42.764;23.432;2023-08-17T14:22:26;7.57;;;3.40;;
41685;SDS011;27370;42.764;23.432;2023-08-17T14:24:51;5.93;;;3.20;;
41685;SDS011;27370;42.764;23.432;2023-08-17T14:27:17;7.90;;;3.30;;
41685;SDS011;27370;42.764;23.432;2023-08-17T14:29:42;6.32;;;3.15;;
41685;SDS011;27370;42.764;23.432;2023-08-17T14:32:08;6.82;;;2.83;;
41685;SDS011;27370;42.764;23.432;2023-08-17T14:34:33;10.73;;;3.80;;
41685;SDS011;27370;42.764;23.432;2023-08-17T14:36:59;8.18;;;3.67;;
41685;SDS011;27370;42.764;23.432;2023-08-17T14:39:24;6.75;;;3.20;;
41685;SDS011;27370;42.764;23.432;2023-08-17T14:41:50;9.88;;;3.90;;
41685;SDS011;27370;42.764;23.432;2023-08-17T14:44:15;8.27;;;3.20;;
41685;SDS011;27370;42.764;23.432;2023-08-17T14:46:42;7.90;;;3.72;;